Time;durP1;ratioP1;P1;durP2;ratioP2;P2;SDS_P1;SDS_P2;PMS_P1;PMS_P2;Temp;Humidity;BMP_temperature;BMP_pressure;BME280_temperature;BME280_humidity;BME280_pressure;Samples;Min_cycle;Max_cycle;Signal;HPM_P1;HPM_P2
2023/06/17 00:00:56;;;;;;;10.10;7.40;;;;;;;20.69;63.00;100010.23;107854;1256;72695;-78
2023/06/17 00:03:24;;;;;;;11.50;8.30;;;;;;;20.69;63.51;100010.79;107799;1257;72743;-78
2023/06/17 00:05:52;;;;;;;9.40;7.70;;;;;;;20.68;63.98;100010.35;107832;1256;60464;-79
2023/06/17 00:08:20;;;;;;;11.50;8.40;;;;;;;20.68;64.54;100008.34;107930;1255;60226;-78
2023/06/17 00:10:48;;;;;;;14.10;8.60;;;;;;;20.67;64.81;100004.59;107984;1256;73843;-78
2023/06/17 00:13:19;;;;;;;12.40;8.40;;;;;;;20.65;65.21;100002.88;108082;1257;71997;-78
2023/06/17 00:15:50;;;;;;;10.10;7.10;;;;;;;20.62;65.53;100002.17;107873;1257;73007;-78
2023/06/17 00:18:19;;;;;;;10.40;8.00;;;;;;;20.59;65.44;100001.94;107876;1256;61784;-78
2023/06/17 00:20:48;;;;;;;10.00;8.30;;;;;;;20.55;65.26;100001.15;107932;1255;60777;-78
2023/06/17 00:23:16;;;;;;;9.60;7.60;;;;;;;20.51;65.44;99997.45;107822;1256;72795;-78
2023/06/17 00:25:43;;;;;;;11.20;8.40;;;;;;;20.48;65.70;100000.89;107901;1257;72786;-78
2023/06/17 00:28:11;;;;;;;9.40;8.00;;;;;;;20.45;65.96;100000.95;107866;1257;72632;-78
2023/06/17 00:30:39;;;;;;;9.30;7.90;;;;;;;20.43;66.45;100000.02;107773;1256;61677;-78
2023/06/17 00:33:08;;;;;;;11.40;8.50;;;;;;;20.42;66.64;99997.52;107834;1257;60069;-78
2023/06/17 00:35:35;;;;;;;11.30;8.30;;;;;;;20.41;66.88;99999.44;107917;1257;72840;-78
2023/06/17 00:38:03;;;;;;;11.00;8.90;;;;;;;20.40;67.13;99998.23;107757;1257;71611;-77
2023/06/17 00:40:32;;;;;;;12.10;8.80;;;;;;;20.40;67.39;99998.46;107815;1256;71371;-77
2023/06/17 00:43:00;;;;;;;12.40;8.50;;;;;;;20.39;67.69;100000.31;107806;1259;61656;-78
2023/06/17 00:45:27;;;;;;;10.60;7.40;;;;;;;20.36;67.64;100005.16;107741;1256;60474;-78
2023/06/17 00:47:55;;;;;;;11.40;8.70;;;;;;;20.23;67.32;100006.48;107926;1256;74564;-78
2023/06/17 00:50:24;;;;;;;11.00;8.10;;;;;;;20.10;67.23;100001.27;107935;1257;71649;-78
2023/06/17 00:52:53;;;;;;;10.40;8.00;;;;;;;20.00;67.25;100013.02;107926;1257;75244;-78
2023/06/17 00:55:21;;;;;;;11.60;8.10;;;;;;;19.84;67.31;100008.51;107872;1257;61812;-78
2023/06/17 00:57:49;;;;;;;10.40;8.60;;;;;;;19.74;67.53;100005.98;107764;1258;60572;-78
2023/06/17 01:00:17;;;;;;;10.60;8.00;;;;;;;19.66;67.66;100003.58;107748;1257;71598;-77
2023/06/17 01:02:46;;;;;;;10.90;8.20;;;;;;;19.61;67.71;100005.96;107874;1257;72972;-78
2023/06/17 01:05:16;;;;;;;9.90;8.20;;;;;;;19.55;67.89;100002.89;107918;1256;71516;-79
2023/06/17 01:07:58;;;;;;;9.60;7.30;;;;;;;19.53;67.96;100000.16;108102;1257;61982;-80
2023/06/17 01:10:35;;;;;;;12.30;9.00;;;;;;;19.52;68.10;99995.81;107856;1255;60954;-78
2023/06/17 01:13:03;;;;;;;10.20;8.10;;;;;;;19.52;68.21;99997.17;107962;1260;73887;-79
2023/06/17 01:15:36;;;;;;;10.50;8.10;;;;;;;19.51;68.25;100000.84;108074;1256;71701;-78
2023/06/17 01:18:04;;;;;;;9.80;8.00;;;;;;;19.49;68.18;99997.33;107755;1256;72375;-80
2023/06/17 01:20:32;;;;;;;10.90;8.40;;;;;;;19.48;68.35;99999.11;108008;1256;61738;-79
2023/06/17 01:23:00;;;;;;;9.40;7.50;;;;;;;19.48;68.39;100001.44;107959;1255;60304;-79
2023/06/17 01:25:31;;;;;;;10.70;7.70;;;;;;;19.47;68.33;100002.81;107604;1257;73864;-79
2023/06/17 01:28:16;;;;;;;10.40;7.90;;;;;;;19.44;68.21;99998.09;108066;1256;72885;-80
2023/06/17 01:30:44;;;;;;;9.90;8.40;;;;;;;19.40;68.20;100002.64;108097;1254;71476;-78
2023/06/17 01:33:15;;;;;;;10.60;8.00;;;;;;;19.38;68.42;100003.73;108039;1257;61718;-78
2023/06/17 01:35:55;;;;;;;10.50;7.80;;;;;;;19.38;68.59;99999.92;107954;1256;60300;-78
2023/06/17 01:38:41;;;;;;;9.80;7.80;;;;;;;19.36;68.77;100002.33;107704;1257;72012;-78
2023/06/17 01:41:11;;;;;;;9.40;7.70;;;;;;;19.35;68.97;99999.91;107951;1256;71439;-78
2023/06/17 01:43:39;;;;;;;9.90;8.30;;;;;;;19.35;69.13;100000.05;107840;1255;71405;-78
2023/06/17 01:46:07;;;;;;;12.00;9.20;;;;;;;19.35;69.18;99998.41;107928;1256;60295;-79
2023/06/17 02:44:04;;;;;;;9.70;8.00;;;;;;;19.65;69.64;100009.24;105033;1290;613208;-78
2023/06/17 02:46:31;;;;;;;10.00;8.10;;;;;;;19.71;69.17;100011.77;107485;1264;61695;-79
2023/06/17 02:48:58;;;;;;;10.30;7.90;;;;;;;19.77;68.98;100006.83;107445;1264;60271;-79
2023/06/17 02:51:27;;;;;;;9.40;7.70;;;;;;;19.82;68.64;100009.94;107429;1266;71914;-79
2023/06/17 02:53:54;;;;;;;11.70;8.10;;;;;;;19.87;68.39;100007.47;107507;1264;71553;-78
2023/06/17 02:56:22;;;;;;;8.80;7.20;;;;;;;19.91;68.03;100010.42;107422;1262;219974;-78
2023/06/17 02:58:50;;;;;;;11.50;8.10;;;;;;;19.95;67.63;100007.08;107661;1260;62309;-78
2023/06/17 03:01:18;;;;;;;10.10;7.70;;;;;;;20.01;67.17;100008.59;107696;1263;60228;-79
2023/06/17 03:03:45;;;;;;;9.60;7.40;;;;;;;20.07;66.64;100013.54;107718;1261;71838;-80
2023/06/17 03:06:13;;;;;;;9.50;7.70;;;;;;;20.15;66.11;100012.79;107690;1259;72578;-78
2023/06/17 03:08:41;;;;;;;11.40;7.60;;;;;;;20.21;65.62;100008.96;107727;1260;72634;-79
2023/06/17 03:11:09;;;;;;;8.80;7.40;;;;;;;20.25;64.98;100011.28;107732;1259;59795;-79
2023/06/17 03:13:36;;;;;;;10.60;7.80;;;;;;;20.30;64.51;100016.71;107769;1259;60265;-79
2023/06/17 03:16:06;;;;;;;10.60;8.10;;;;;;;20.34;63.96;100010.44;107652;1260;72977;-79
2023/06/17 03:18:34;;;;;;;9.70;7.90;;;;;;;20.41;63.54;100009.58;107728;1260;72652;-79
2023/06/17 03:21:01;;;;;;;11.70;7.60;;;;;;;20.48;63.10;100013.14;107639;1260;72516;-78
2023/06/17 03:23:30;;;;;;;10.20;7.50;;;;;;;20.54;62.65;100013.55;107658;1260;60356;-78
2023/06/17 03:25:57;;;;;;;9.60;7.60;;;;;;;20.60;62.27;100013.26;107821;1259;60081;-80
2023/06/17 03:28:24;;;;;;;9.40;7.60;;;;;;;20.65;62.03;100016.36;107905;1260;72859;-77
2023/06/17 03:30:52;;;;;;;11.20;7.20;;;;;;;20.72;61.78;100016.52;107709;1259;70553;-79
2023/06/17 03:33:19;;;;;;;8.80;7.50;;;;;;;20.82;61.56;100018.02;108166;1254;72455;-78
2023/06/17 03:35:47;;;;;;;9.40;7.10;;;;;;;20.94;61.29;100017.08;108412;1251;61753;-78
2023/06/17 03:38:14;;;;;;;10.50;7.20;;;;;;;21.05;60.54;100021.84;108304;1251;60356;-79
2023/06/17 03:40:41;;;;;;;12.20;7.50;;;;;;;21.16;59.73;100021.41;108304;1253;71528;-79
2023/06/17 03:43:08;;;;;;;9.20;7.60;;;;;;;21.25;59.38;100021.85;108351;1251;72553;-79
2023/06/17 03:45:35;;;;;;;8.10;7.10;;;;;;;21.37;58.99;100020.81;108269;1251;71011;-79
2023/06/17 03:48:03;;;;;;;9.70;7.40;;;;;;;21.47;58.09;100020.73;108222;1251;60357;-79
2023/06/17 03:50:31;;;;;;;8.60;7.40;;;;;;;21.56;57.38;100021.55;108241;1251;60208;-79
2023/06/17 03:52:58;;;;;;;10.50;8.00;;;;;;;21.64;56.92;100022.17;108322;1254;71861;-80
2023/06/17 03:55:25;;;;;;;10.60;8.00;;;;;;;21.72;56.38;100020.06;108379;1253;72467;-79
2023/06/17 03:57:53;;;;;;;9.90;7.20;;;;;;;21.79;55.96;100020.98;108392;1252;71439;-79
2023/06/17 04:00:22;;;;;;;11.00;7.70;;;;;;;21.87;55.69;100021.11;108142;1253;60390;-79
2023/06/17 04:02:49;;;;;;;9.30;8.00;;;;;;;21.92;55.64;100020.33;108362;1254;60414;-79
2023/06/17 04:05:32;;;;;;;9.00;7.40;;;;;;;21.95;54.95;100016.20;108279;1254;73020;-79
2023/06/17 04:08:02;;;;;;;11.00;7.40;;;;;;;21.95;54.68;100019.71;108157;1252;73706;-79
2023/06/17 04:10:29;;;;;;;11.00;7.30;;;;;;;21.98;54.54;100017.85;108311;1253;72510;-79
2023/06/17 04:12:56;;;;;;;8.40;6.90;;;;;;;22.03;54.01;100015.95;108223;1253;59982;-79
2023/06/17 04:15:25;;;;;;;8.20;6.60;;;;;;;22.06;53.16;100015.89;108268;1254;59611;-80
2023/06/17 04:17:52;;;;;;;7.20;6.30;;;;;;;22.10;52.20;100016.30;108342;1252;72815;-80
2023/06/17 04:20:25;;;;;;;11.10;7.00;;;;;;;22.20;52.24;100019.08;108407;1254;72455;-79
2023/06/17 04:22:52;;;;;;;8.60;6.30;;;;;;;22.32;52.12;100016.12;108396;1254;73148;-80
2023/06/17 04:25:20;;;;;;;8.40;6.70;;;;;;;22.40;51.56;100018.84;108278;1253;60516;-80
2023/06/17 04:27:53;;;;;;;8.10;6.50;;;;;;;22.49;51.08;100020.14;108381;1253;59515;-80
2023/06/17 04:30:21;;;;;;;7.40;6.30;;;;;;;22.60;50.69;100020.19;108305;1254;72012;-79
2023/06/17 04:32:50;;;;;;;8.00;6.60;;;;;;;22.71;50.24;100019.30;108324;1254;71141;-79
2023/06/17 04:35:18;;;;;;;8.50;6.50;;;;;;;22.83;50.16;100022.15;108222;1256;72657;-79
2023/06/17 04:37:53;;;;;;;9.90;6.80;;;;;;;22.96;50.14;100026.07;108235;1254;60184;-79
2023/06/17 04:40:22;;;;;;;8.50;6.60;;;;;;;23.08;49.06;100021.91;108324;1253;60182;-78
2023/06/17 04:42:49;;;;;;;9.20;6.50;;;;;;;23.18;48.56;100023.08;108304;1254;71687;-78
2023/06/17 04:45:17;;;;;;;12.20;6.50;;;;;;;23.27;48.40;100020.70;108288;1254;72850;-79
2023/06/17 04:47:46;;;;;;;7.90;6.20;;;;;;;23.37;47.78;100018.65;108182;1253;72461;-79
2023/06/17 04:50:16;;;;;;;10.10;6.40;;;;;;;23.48;47.24;100020.77;108224;1251;59610;-79
2023/06/17 04:52:48;;;;;;;8.10;6.60;;;;;;;23.61;47.47;100020.96;108337;1253;60053;-79
2023/06/17 04:55:36;;;;;;;9.70;7.10;;;;;;;23.75;47.14;100021.95;108106;1254;72891;-79
2023/06/17 04:58:04;;;;;;;7.70;6.90;;;;;;;23.85;46.41;100022.98;108275;1256;72813;-82
2023/06/17 05:00:40;;;;;;;8.20;6.40;;;;;;;23.98;46.13;100020.34;108168;1254;72535;-78
2023/06/17 05:03:11;;;;;;;9.50;6.70;;;;;;;24.09;46.12;100022.94;108203;1254;60072;-78
2023/06/17 05:05:38;;;;;;;7.50;6.60;;;;;;;24.22;46.41;100026.00;108007;1254;60099;-78
2023/06/17 05:08:05;;;;;;;9.00;6.50;;;;;;;24.34;45.82;100028.86;108071;1255;73113;-78
2023/06/17 05:10:33;;;;;;;8.40;6.20;;;;;;;24.45;45.57;100034.94;108118;1255;72568;-79
2023/06/17 05:13:00;;;;;;;8.20;6.10;;;;;;;24.55;45.65;100033.02;108176;1258;72523;-80
2023/06/17 05:15:29;;;;;;;7.30;5.70;;;;;;;24.66;45.29;100032.89;108142;1254;60217;-79
2023/06/17 05:17:57;;;;;;;7.20;6.20;;;;;;;24.76;45.14;100034.61;108108;1253;60293;-80
2023/06/17 05:20:24;;;;;;;8.70;6.50;;;;;;;24.86;45.02;100031.96;108362;1254;71607;-81
2023/06/17 05:22:51;;;;;;;8.60;6.00;;;;;;;24.96;44.52;100034.94;108228;1253;73116;-80
2023/06/17 05:25:18;;;;;;;7.20;6.30;;;;;;;25.08;44.09;100032.70;108308;1253;72573;-78
2023/06/17 05:27:52;;;;;;;7.20;6.30;;;;;;;25.21;43.64;100032.44;83827;1256;20002891;-81
2023/06/17 05:30:22;;;;;;;7.20;5.70;;;;;;;25.33;42.89;100034.71;108323;1253;59887;-79
2023/06/17 05:32:52;;;;;;;7.80;6.00;;;;;;;25.44;42.24;100030.90;108199;1254;72947;-78
2023/06/17 05:35:19;;;;;;;7.90;5.80;;;;;;;25.56;42.56;100033.15;108123;1253;72988;-79
2023/06/17 05:37:46;;;;;;;7.80;5.90;;;;;;;25.68;42.58;100036.20;108250;1253;71734;-79
2023/06/17 05:40:13;;;;;;;6.80;6.10;;;;;;;25.82;42.65;100035.67;108328;1254;60507;-80
2023/06/17 05:42:41;;;;;;;7.70;6.10;;;;;;;25.92;42.32;100033.39;108242;1256;60403;-78
2023/06/17 05:45:08;;;;;;;8.10;6.00;;;;;;;26.06;42.39;100035.49;108063;1253;71658;-79
2023/06/17 05:47:36;;;;;;;7.40;5.70;;;;;;;26.20;42.02;100035.80;108195;1254;72726;-79
2023/06/17 05:50:03;;;;;;;9.40;6.20;;;;;;;26.29;41.05;100033.86;108150;1253;71368;-79
2023/06/17 05:52:32;;;;;;;6.90;5.40;;;;;;;26.39;40.80;100036.06;108149;1253;59697;-79
2023/06/17 05:54:59;;;;;;;6.00;5.30;;;;;;;26.51;40.57;100040.03;108393;1252;60037;-80
2023/06/17 05:57:26;;;;;;;6.70;5.80;;;;;;;26.65;41.30;100039.38;108350;1252;73302;-80
2023/06/17 05:59:53;;;;;;;8.00;6.50;;;;;;;26.80;41.26;100040.20;108663;1253;72800;-80
2023/06/17 06:02:20;;;;;;;6.80;6.00;;;;;;;26.95;41.27;100037.58;108183;1254;72334;-79
2023/06/17 06:04:48;;;;;;;6.20;5.50;;;;;;;27.09;40.53;100037.98;108249;1254;60338;-79
2023/06/17 06:07:15;;;;;;;7.90;5.70;;;;;;;27.19;39.72;100037.30;108310;1254;60092;-80
2023/06/17 06:09:43;;;;;;;7.10;5.50;;;;;;;27.28;39.70;100039.48;108249;1253;73112;-79
2023/06/17 06:12:10;;;;;;;6.20;5.60;;;;;;;27.40;39.86;100040.33;108253;1254;72725;-81
2023/06/17 06:14:37;;;;;;;7.00;5.20;;;;;;;27.52;38.89;100040.63;108408;1253;72673;-80
2023/06/17 06:17:04;;;;;;;8.80;5.30;;;;;;;27.57;36.63;100040.56;108891;1252;60581;-80
2023/06/17 06:19:31;;;;;;;6.20;5.40;;;;;;;27.59;35.58;100039.16;108121;1254;60337;-81
2023/06/17 06:21:59;;;;;;;7.90;5.00;;;;;;;27.62;35.56;100041.84;108239;1257;72816;-81
2023/06/17 06:24:26;;;;;;;7.30;5.40;;;;;;;27.67;35.43;100039.13;108417;1254;72566;-80
2023/06/17 06:26:53;;;;;;;6.80;5.00;;;;;;;27.74;34.61;100035.71;108166;1254;71196;-80
2023/06/17 06:29:21;;;;;;;7.30;5.10;;;;;;;27.82;34.80;100037.57;108193;1254;59586;-80
2023/06/17 06:31:51;;;;;;;9.90;5.50;;;;;;;27.92;34.97;100035.01;108082;1256;59939;-80
2023/06/17 06:34:21;;;;;;;9.70;5.90;;;;;;;28.00;34.92;100036.84;107978;1254;71451;-80
2023/06/17 06:36:48;;;;;;;7.80;5.90;;;;;;;28.07;34.75;100034.67;108239;1254;71972;-80
2023/06/17 06:39:18;;;;;;;7.70;5.30;;;;;;;28.17;34.73;100036.18;108242;1254;73218;-79
2023/06/17 06:41:46;;;;;;;8.90;5.70;;;;;;;28.28;34.04;100034.39;108204;1254;60059;-79
2023/06/17 06:44:25;;;;;;;8.00;5.10;;;;;;;28.38;34.46;100031.45;108170;1251;59609;-80
2023/06/17 06:46:54;;;;;;;8.40;5.90;;;;;;;28.48;34.51;100029.42;108282;1251;73108;-80
2023/06/17 06:49:21;;;;;;;6.70;5.40;;;;;;;28.58;34.24;100029.13;108229;1254;72638;-79
2023/06/17 06:51:48;;;;;;;6.30;5.50;;;;;;;28.68;34.78;100033.11;108123;1251;62581;-79
2023/06/17 06:54:15;;;;;;;8.30;5.80;;;;;;;28.77;33.93;100030.84;108395;1253;60318;-79
2023/06/17 06:56:43;;;;;;;7.00;5.40;;;;;;;28.87;33.80;100029.50;108392;1251;60384;-79
2023/06/17 06:59:10;;;;;;;5.90;5.30;;;;;;;28.95;32.78;100031.86;108384;1251;66217;-80
2023/06/17 07:01:37;;;;;;;7.60;5.40;;;;;;;28.96;31.89;100035.94;108329;1251;63984;-80
2023/06/17 07:04:04;;;;;;;6.60;5.30;;;;;;;28.96;31.50;100032.95;108479;1251;64095;-80
2023/06/17 07:06:31;;;;;;;7.00;5.20;;;;;;;28.99;32.07;100031.70;108519;1254;59412;-80
2023/06/17 07:09:00;;;;;;;6.50;5.00;;;;;;;29.08;32.45;100032.02;108434;1251;59584;-80
2023/06/17 07:11:27;;;;;;;7.20;5.40;;;;;;;29.18;32.18;100029.18;108522;1251;63794;-82
2023/06/17 07:13:54;;;;;;;8.50;5.30;;;;;;;29.26;32.39;100025.46;108528;1251;63912;-80
2023/06/17 07:16:22;;;;;;;7.00;5.20;;;;;;;29.33;31.84;100023.55;108417;1251;62852;-80
2023/06/17 07:18:49;;;;;;;7.60;5.30;;;;;;;29.39;31.57;100028.17;108492;1251;60419;-80
2023/06/17 07:21:16;;;;;;;7.00;5.30;;;;;;;29.45;32.10;100029.88;108425;1251;59152;-81
2023/06/17 07:23:43;;;;;;;8.80;4.80;;;;;;;29.53;31.38;100027.58;108390;1254;63614;-80
2023/06/17 07:26:10;;;;;;;6.60;4.80;;;;;;;29.58;31.27;100029.77;108405;1251;62824;-80
2023/06/17 07:28:37;;;;;;;7.20;5.30;;;;;;;29.63;30.34;100032.45;108349;1251;64211;-79
2023/06/17 07:31:05;;;;;;;5.60;4.70;;;;;;;29.68;30.79;100038.01;108438;1251;60296;-80
2023/06/17 07:33:32;;;;;;;6.90;5.00;;;;;;;29.78;31.10;100038.11;108365;1256;60338;-80
2023/06/17 07:35:59;;;;;;;6.60;5.00;;;;;;;29.89;29.97;100035.88;108436;1251;64918;-80
2023/06/17 07:38:26;;;;;;;7.20;5.10;;;;;;;29.96;29.70;100038.27;108354;1251;63982;-80
2023/06/17 07:40:53;;;;;;;5.90;4.30;;;;;;;30.01;29.79;100037.71;108317;1251;63834;-79
2023/06/17 07:43:21;;;;;;;6.20;4.30;;;;;;;30.05;29.15;100031.85;108332;1251;60398;-81
2023/06/17 07:45:48;;;;;;;6.30;4.70;;;;;;;30.09;29.19;100029.62;108330;1252;60431;-78
2023/06/17 07:48:16;;;;;;;7.60;5.10;;;;;;;30.19;30.04;100030.67;108351;1253;63692;-81
2023/06/17 07:50:44;;;;;;;6.50;4.60;;;;;;;30.29;29.03;100028.48;108303;1251;64203;-80
2023/06/17 07:53:13;;;;;;;7.80;5.20;;;;;;;30.41;28.31;100025.02;108246;1251;63842;-81
2023/06/17 07:55:39;;;;;;;8.60;5.40;;;;;;;30.46;28.07;100025.07;108314;1251;60455;-79
2023/06/17 07:58:06;;;;;;;8.10;4.60;;;;;;;30.09;28.88;100025.54;108356;1252;60278;-78
2023/06/17 08:00:33;;;;;;;8.80;4.70;;;;;;;30.00;29.81;100026.92;108370;1251;64989;-79
2023/06/17 08:03:00;;;;;;;6.60;5.10;;;;;;;30.08;29.28;100023.33;108318;1251;63977;-80
2023/06/17 08:05:27;;;;;;;5.70;4.50;;;;;;;30.20;29.34;100020.84;108454;1251;64030;-81
2023/06/17 08:07:55;;;;;;;7.00;5.10;;;;;;;30.31;29.12;100019.83;108370;1251;60879;-80
2023/06/17 08:10:22;;;;;;;7.00;5.20;;;;;;;30.35;28.50;100021.14;108439;1256;60011;-80
2023/06/17 08:12:50;;;;;;;7.40;4.90;;;;;;;30.35;27.57;100018.61;108400;1251;65047;-79
2023/06/17 08:15:17;;;;;;;7.50;5.10;;;;;;;30.35;28.47;100022.70;108494;1251;62898;-81
2023/06/17 08:17:44;;;;;;;5.50;4.90;;;;;;;30.44;28.57;100022.41;108508;1251;64127;-81
2023/06/17 08:20:11;;;;;;;8.60;5.20;;;;;;;30.49;28.37;100022.37;108502;1251;60318;-81
2023/06/17 08:22:39;;;;;;;11.20;5.30;;;;;;;30.51;28.90;100023.61;108440;1251;60430;-80
2023/06/17 08:25:06;;;;;;;5.10;4.60;;;;;;;30.55;29.54;100021.23;108506;1251;64027;-80
2023/06/17 08:27:33;;;;;;;7.10;4.80;;;;;;;30.63;28.51;100016.11;108522;1251;63898;-80
2023/06/17 08:30:05;;;;;;;7.10;5.10;;;;;;;30.73;27.72;100016.75;108495;1252;62475;-79
2023/06/17 08:32:32;;;;;;;6.90;4.80;;;;;;;30.82;27.27;100019.52;108434;1256;60516;-80
2023/06/17 08:35:05;;;;;;;6.90;4.70;;;;;;;30.80;26.58;100019.14;108412;1251;59169;-79
2023/06/17 08:37:33;;;;;;;6.10;4.50;;;;;;;30.63;26.13;100020.85;108427;1251;63963;-80
2023/06/17 08:40:00;;;;;;;7.10;4.70;;;;;;;30.50;26.38;100023.93;108422;1251;63918;-81
2023/06/17 08:42:28;;;;;;;5.60;4.60;;;;;;;30.42;26.51;100025.81;108279;1256;64145;-80
2023/06/17 08:44:56;;;;;;;6.20;5.00;;;;;;;30.28;27.26;100022.38;108297;1253;59003;-81
2023/06/17 08:47:23;;;;;;;6.50;5.10;;;;;;;30.14;27.98;100022.51;108368;1251;60577;-81
2023/06/17 08:49:50;;;;;;;7.20;5.40;;;;;;;30.14;28.12;100024.31;108511;1251;65079;-80
2023/06/17 08:52:17;;;;;;;6.90;4.80;;;;;;;30.27;28.01;100024.73;108505;1251;62867;-80
2023/06/17 08:54:44;;;;;;;6.30;4.70;;;;;;;30.42;28.18;100026.12;108456;1256;63920;-81
2023/06/17 08:57:12;;;;;;;6.50;4.80;;;;;;;30.61;28.22;100024.71;108502;1251;61280;-80
2023/06/17 08:59:42;;;;;;;6.00;4.80;;;;;;;30.82;27.55;100024.33;108576;1251;60287;-80
2023/06/17 09:02:12;;;;;;;5.60;5.00;;;;;;;30.99;27.30;100022.66;108584;1251;65261;-78
2023/06/17 09:04:39;;;;;;;7.00;4.80;;;;;;;31.08;26.67;100022.26;108657;1256;64216;-78
2023/06/17 09:07:09;;;;;;;6.70;5.10;;;;;;;31.00;26.35;100021.95;108814;1251;64565;-80
2023/06/17 09:09:36;;;;;;;5.80;5.10;;;;;;;30.84;26.43;100023.76;108480;1255;60390;-80
2023/06/17 09:12:08;;;;;;;5.30;4.50;;;;;;;30.64;26.22;100023.91;108520;1251;59335;-80
2023/06/17 09:14:35;;;;;;;6.20;4.80;;;;;;;30.43;26.88;100020.14;108439;1251;64932;-81
2023/06/17 09:17:02;;;;;;;6.40;5.10;;;;;;;30.24;27.01;100019.31;108348;1251;63985;-80
2023/06/17 09:19:31;;;;;;;6.10;4.50;;;;;;;30.10;27.52;100023.70;108359;1251;64017;-82
2023/06/17 09:22:08;;;;;;;8.60;4.80;;;;;;;30.04;27.73;100020.84;108288;1257;60714;-81
2023/06/17 09:24:40;;;;;;;5.20;4.50;;;;;;;30.03;27.66;100016.05;108422;1251;59618;-80
2023/06/17 09:27:07;;;;;;;5.40;4.90;;;;;;;30.15;27.96;100014.95;108468;1251;65176;-79
2023/06/17 09:29:35;;;;;;;5.90;4.80;;;;;;;30.39;27.52;100008.83;108579;1251;63983;-79
2023/06/17 09:32:05;;;;;;;7.70;5.10;;;;;;;30.61;27.61;100010.38;108576;1251;64314;-80
2023/06/17 09:34:31;;;;;;;5.60;4.50;;;;;;;30.80;27.19;100011.34;108569;1253;60409;-78
2023/06/17 09:37:00;;;;;;;4.80;4.30;;;;;;;30.97;26.27;100014.25;108632;1251;59485;-79
2023/06/17 09:39:31;;;;;;;7.30;5.30;;;;;;;31.06;26.01;100011.33;108828;1251;63939;-79
2023/06/17 09:42:16;;;;;;;5.50;5.00;;;;;;;31.15;25.67;100005.48;108661;1251;64200;-79
2023/06/17 09:44:45;;;;;;;7.80;4.70;;;;;;;31.24;25.10;100004.11;108477;1251;62554;-78
2023/06/17 09:47:12;;;;;;;6.70;5.00;;;;;;;31.25;25.27;100002.21;108378;1251;60211;-79
2023/06/17 09:49:39;;;;;;;5.90;5.00;;;;;;;31.23;25.49;99999.65;108522;1251;59336;-80
2023/06/17 09:52:09;;;;;;;6.40;4.60;;;;;;;31.24;25.84;99997.50;108510;1251;63902;-82
2023/06/17 09:54:36;;;;;;;6.80;5.10;;;;;;;31.43;25.99;99995.33;108580;1255;62587;-81
2023/06/17 09:57:04;;;;;;;6.10;5.00;;;;;;;31.56;24.91;99992.96;108540;1254;63981;-79
2023/06/17 09:59:32;;;;;;;7.30;4.90;;;;;;;31.52;24.85;99996.17;108617;1251;59125;-80
2023/06/17 10:01:59;;;;;;;7.00;4.90;;;;;;;31.40;25.86;99995.14;108549;1251;60028;-80
2023/06/17 10:04:26;;;;;;;6.30;4.80;;;;;;;31.28;26.23;99993.44;108522;1256;65334;-79
2023/06/17 10:06:53;;;;;;;6.40;4.60;;;;;;;31.11;26.78;99994.17;108537;1255;63876;-80
2023/06/17 10:09:20;;;;;;;5.70;4.50;;;;;;;30.95;26.75;99993.23;108460;1251;62515;-79
2023/06/17 10:11:48;;;;;;;7.50;4.70;;;;;;;30.95;27.35;99990.48;108400;1251;59183;-79
2023/06/17 10:14:29;;;;;;;5.20;4.70;;;;;;;31.06;27.04;99990.38;108554;1251;60382;-81
2023/06/17 10:16:56;;;;;;;6.90;5.00;;;;;;;31.24;27.10;99987.03;108501;1251;63638;-80
2023/06/17 10:19:27;;;;;;;5.90;4.70;;;;;;;31.32;26.52;99986.14;108439;1251;64065;-80
2023/06/17 10:21:54;;;;;;;;;;;;;;;31.29;25.89;99987.66;108468;1255;62479;-81
2023/06/17 10:24:22;;;;;;;7.10;4.60;;;;;;;31.27;26.13;99983.67;108510;1251;60235;-78
2023/06/17 10:26:52;;;;;;;5.60;4.50;;;;;;;31.27;26.45;99985.80;108496;1255;60306;-81
2023/06/17 10:29:20;;;;;;;8.80;5.30;;;;;;;31.29;26.64;99983.96;108468;1251;65273;-78
2023/06/17 10:31:47;;;;;;;5.30;4.70;;;;;;;31.40;26.45;99981.66;108551;1251;62827;-80
2023/06/17 10:34:14;;;;;;;5.90;5.00;;;;;;;31.57;26.07;99981.77;108452;1251;62812;-80
2023/06/17 10:36:41;;;;;;;4.80;4.20;;;;;;;31.79;26.08;99985.50;108451;1251;60319;-81
2023/06/17 10:39:11;;;;;;;6.20;4.40;;;;;;;31.97;25.56;99986.45;108411;1254;60437;-78
2023/06/17 10:41:59;;;;;;;7.60;4.70;;;;;;;32.12;25.20;99983.46;108373;1255;65118;-80
2023/06/17 10:44:39;;;;;;;6.20;4.80;;;;;;;32.31;25.13;99982.22;108445;1256;63903;-80
2023/06/17 10:47:19;;;;;;;8.10;4.70;;;;;;;32.51;25.09;99978.45;108438;1251;62575;-81
2023/06/17 10:49:48;;;;;;;5.20;4.60;;;;;;;32.64;24.47;99975.21;108340;1254;60325;-79
2023/06/17 10:52:15;;;;;;;5.40;4.70;;;;;;;32.71;24.85;99973.37;108442;1256;59272;-81
2023/06/17 10:54:45;;;;;;;6.00;5.00;;;;;;;32.66;24.70;99977.96;108413;1254;65256;-80
2023/06/17 10:57:13;;;;;;;6.10;4.60;;;;;;;32.40;24.79;99981.45;108491;1251;64478;-80
2023/06/17 10:59:39;;;;;;;6.50;5.00;;;;;;;32.12;25.05;99978.88;108457;1254;62505;-80
2023/06/17 11:02:07;;;;;;;5.70;4.80;;;;;;;31.90;25.62;99979.35;108432;1251;60368;-79
2023/06/17 11:04:43;;;;;;;5.40;4.80;;;;;;;31.86;25.30;99977.51;108400;1251;60394;-80
2023/06/17 11:07:13;;;;;;;7.80;4.90;;;;;;;31.84;24.82;99979.89;108454;1251;65060;-84
2023/06/17 11:09:39;;;;;;;6.30;4.70;;;;;;;31.88;25.32;99983.09;108431;1251;63880;-83
2023/06/17 11:12:07;;;;;;;5.60;4.30;;;;;;;31.97;25.08;99981.80;108405;1251;63951;-81
2023/06/17 11:14:36;;;;;;;7.60;4.80;;;;;;;32.04;25.04;99979.56;108373;1251;60444;-81
2023/06/17 11:17:04;;;;;;;5.40;4.50;;;;;;;32.06;24.61;99975.05;108369;1257;60315;-79
2023/06/17 11:19:31;;;;;;;5.80;4.40;;;;;;;32.04;24.99;99974.44;108400;1251;65035;-79
2023/06/17 11:22:03;;;;;;;5.80;4.50;;;;;;;32.03;24.51;99972.55;108448;1251;63070;-80
2023/06/17 11:24:30;;;;;;;5.60;5.00;;;;;;;31.95;23.78;99968.79;108419;1256;63907;-81
2023/06/17 11:26:58;;;;;;;6.00;4.50;;;;;;;31.91;23.77;99966.55;108353;1255;60220;-80
2023/06/17 11:29:28;;;;;;;9.50;5.30;;;;;;;31.91;23.87;99969.64;108434;1256;60425;-80
2023/06/17 11:31:59;;;;;;;5.20;4.20;;;;;;;31.95;24.16;99963.98;108433;1252;65012;-80
2023/06/17 11:34:31;;;;;;;6.30;4.40;;;;;;;32.06;24.39;99961.92;108458;1251;63935;-79
2023/06/17 11:37:00;;;;;;;7.40;4.60;;;;;;;32.28;24.10;99961.81;108422;1251;62574;-80
2023/06/17 11:39:28;;;;;;;8.30;4.70;;;;;;;32.43;23.46;99960.64;108574;1251;60206;-79
2023/06/17 11:42:01;;;;;;;8.10;4.70;;;;;;;32.53;23.34;99959.48;108490;1251;61085;-82
2023/06/17 11:44:32;;;;;;;5.80;4.80;;;;;;;32.56;23.14;99956.95;108277;1257;65331;-82
2023/06/17 11:47:06;;;;;;;6.70;4.80;;;;;;;32.54;24.43;99956.11;108245;1256;63882;-83
2023/06/17 11:49:35;;;;;;;6.20;4.40;;;;;;;32.47;23.76;99951.80;108278;1251;63952;-79
2023/06/17 11:52:06;;;;;;;5.10;4.30;;;;;;;32.51;23.67;99951.12;108173;1251;61688;-80
2023/06/17 11:54:34;;;;;;;5.30;4.80;;;;;;;32.60;23.46;99952.84;108110;1252;60322;-79
2023/06/17 11:57:02;;;;;;;5.20;4.20;;;;;;;32.68;23.44;99947.89;108083;1251;65141;-79
2023/06/17 11:59:30;;;;;;;6.00;4.70;;;;;;;32.75;23.45;99947.05;108153;1252;64084;-81
2023/06/17 12:01:57;;;;;;;6.10;5.20;;;;;;;32.79;24.02;99948.58;108107;1251;64053;-79
2023/06/17 12:04:24;;;;;;;5.30;4.80;;;;;;;32.83;23.99;99941.46;108073;1251;59333;-80
2023/06/17 12:06:53;;;;;;;5.20;4.60;;;;;;;32.90;23.69;99938.48;108147;1256;60274;-79
2023/06/17 12:09:21;;;;;;;5.50;4.40;;;;;;;33.04;23.74;99938.39;108256;1251;65439;-79
2023/06/17 12:11:48;;;;;;;5.30;4.80;;;;;;;33.19;23.06;99936.67;108352;1251;71531;-80
2023/06/17 12:14:15;;;;;;;5.00;4.50;;;;;;;33.29;22.33;99933.69;108363;1251;63787;-80
2023/06/17 12:16:43;;;;;;;7.70;4.70;;;;;;;33.19;22.52;99932.08;108407;1251;60398;-81
2023/06/17 12:19:15;;;;;;;6.50;4.60;;;;;;;32.81;23.09;99933.97;108332;1251;59401;-82